Time;durP1;ratioP1;P1;durP2;ratioP2;P2;SDS_P1;SDS_P2;PMS_P1;PMS_P2;Temp;Humidity;BMP_temperature;BMP_pressure;BME280_temperature;BME280_humidity;BME280_pressure;Samples;Min_cycle;Max_cycle;Signal;HPM_P1;HPM_P2
2022/04/20 00:02:00;;;;;;;;;;;;;;;17.01;45.22;100718.59;5075924;28;1044;-56
2022/04/20 00:04:25;;;;;;;;;;;;;;;16.97;45.31;100717.50;5076635;28;1977;-56
2022/04/20 00:06:50;;;;;;;;;;;;;;;16.94;45.24;100720.78;5075564;28;885;-55
2022/04/20 00:09:16;;;;;;;;;;;;;;;16.91;45.65;100716.69;5058755;28;861;-56
2022/04/20 00:11:41;;;;;;;;;;;;;;;16.99;45.33;100719.97;5076414;28;862;-57
2022/04/20 00:14:07;;;;;;;;;;;;;;;17.03;45.51;100726.56;5076045;28;862;-55
2022/04/20 00:16:32;;;;;;;;;;;;;;;16.96;45.30;100717.75;5069830;28;988;-55
2022/04/20 00:18:58;;;;;;;;;;;;;;;16.94;45.50;100720.78;5075514;28;832;-56
2022/04/20 00:21:23;;;;;;;;;;;;;;;16.96;45.43;100728.75;5076352;28;850;-56
2022/04/20 00:23:49;;;;;;;;;;;;;;;17.07;45.16;100733.94;5057555;28;1985;-55
2022/04/20 00:26:15;;;;;;;;;;;;;;;17.17;45.01;100740.53;5076552;28;1075;-55
2022/04/20 00:28:40;;;;;;;;;;;;;;;17.17;45.01;100740.53;5075694;28;822;-56
2022/04/20 00:31:06;;;;;;;;;;;;;;;17.22;44.95;100733.09;5052198;28;1272;-56
2022/04/20 00:33:32;;;;;;;;;;;;;;;17.18;44.89;100731.16;5057222;28;1521;-56
2022/04/20 00:35:57;;;;;;;;;;;;;;;17.24;44.55;100735.56;5075950;28;781;-56
2022/04/20 00:38:23;;;;;;;;;;;;;;;17.27;44.69;100733.06;5058027;28;848;-57
2022/04/20 00:40:49;;;;;;;;;;;;;;;17.33;44.42;100728.38;5058325;28;762;-56
2022/04/20 00:43:14;;;;;;;;;;;;;;;17.29;44.54;100721.78;5057437;28;1917;-56
2022/04/20 00:45:43;;;;;;;;;;;;;;;17.35;44.33;100714.34;5053171;28;867;-56
2022/04/20 00:48:11;;;;;;;;;;;;;;;17.36;44.25;100725.09;5057369;28;841;-56
2022/04/20 00:50:40;;;;;;;;;;;;;;;17.38;44.33;100720.13;5075778;28;797;-55
2022/04/20 00:53:06;;;;;;;;;;;;;;;17.39;44.39;100729.19;5039914;28;858;-56
2022/04/20 00:55:32;;;;;;;;;;;;;;;17.41;44.33;100727.00;5061761;28;1138;-55
2022/04/20 00:58:01;;;;;;;;;;;;;;;17.39;44.12;100727.28;5079552;28;734;-55
2022/04/20 01:00:31;;;;;;;;;;;;;;;17.42;44.20;100721.22;5060239;28;1394;-56
2022/04/20 01:02:57;;;;;;;;;;;;;;;17.38;44.15;100719.31;5079756;28;821;-56
2022/04/20 01:05:26;;;;;;;;;;;;;;;17.37;44.34;100723.97;5061958;28;1146;-54
2022/04/20 01:08:10;;;;;;;;;;;;;;;17.39;44.50;100731.94;5079622;28;789;-55
2022/04/20 01:10:58;;;;;;;;;;;;;;;17.49;44.05;100731.06;5050749;28;1355;-56
2022/04/20 01:13:40;;;;;;;;;;;;;;;17.46;44.01;100729.72;5061598;28;1241;-57
2022/04/20 01:16:40;;;;;;;;;;;;;;;17.44;44.06;100729.97;4992485;28;1369;-56
2022/04/20 01:19:17;;;;;;;;;;;;;;;17.47;43.98;100736.84;5050716;28;1116;-58
2022/04/20 01:22:01;;;;;;;;;;;;;;;17.44;44.14;100726.41;5078503;28;762;-57
2022/04/20 01:24:41;;;;;;;;;;;;;;;17.47;44.30;100720.34;5055047;28;1985;-57
2022/04/20 01:27:33;;;;;;;;;;;;;;;17.47;44.09;100728.59;5071841;28;1474;-54
2022/04/20 01:30:37;;;;;;;;;;;;;;;17.54;44.00;100723.63;4977060;28;1203;-56
2022/04/20 01:33:17;;;;;;;;;;;;;;;17.55;43.90;100724.47;4997880;28;1105;-56
2022/04/20 01:35:47;;;;;;;;;;;;;;;17.56;43.89;100723.38;5030498;28;1167;-56
2022/04/20 01:38:13;;;;;;;;;;;;;;;17.50;43.89;100717.06;5060661;28;1150;-56
2022/04/20 01:40:39;;;;;;;;;;;;;;;17.44;44.10;100719.00;5061071;28;1298;-56
2022/04/20 01:43:05;;;;;;;;;;;;;;;17.47;44.11;100723.09;5061211;28;1901;-56
2022/04/20 01:45:31;;;;;;;;;;;;;;;17.47;44.25;100723.09;5057344;28;1397;-56
2022/04/20 01:48:23;;;;;;;;;;;;;;;17.57;43.95;100722.25;5078726;28;805;-56
2022/04/20 01:54:11;;;;;;;;;;;;;;;17.56;43.92;100720.63;5079014;28;812;-56
2022/04/20 01:56:47;;;;;;;;;;;;;;;17.52;43.89;100725.03;5060015;28;942;-56
2022/04/20 01:59:37;;;;;;;;;;;;;;;17.54;43.94;100722.81;5060865;28;1268;-57
2022/04/20 02:05:07;;;;;;;;;;;;;;;17.55;43.81;100716.22;5041119;28;1977;-57
2022/04/20 02:07:34;;;;;;;;;;;;;;;17.59;43.73;100720.88;5060297;28;1621;-57
2022/04/20 02:10:00;;;;;;;;;;;;;;;17.55;43.88;100716.22;5060753;28;1158;-56
2022/04/20 02:12:25;;;;;;;;;;;;;;;17.56;43.95;100715.94;5060592;28;1098;-56
2022/04/20 02:15:09;;;;;;;;;;;;;;;17.57;43.79;100714.84;5075511;28;849;-57
2022/04/20 02:18:04;;;;;;;;;;;;;;;17.63;43.69;100715.63;5021392;28;1193;-55
2022/04/20 02:20:48;;;;;;;;;;;;;;;17.57;43.69;100722.25;5060832;28;1316;-56
2022/04/20 02:23:13;;;;;;;;;;;;;;;17.52;44.08;100720.34;5060133;28;1905;-55
2022/04/20 02:25:39;;;;;;;;;;;;;;;17.51;44.02;100717.88;5077163;28;993;-56
2022/04/20 02:28:05;;;;;;;;;;;;;;;17.51;44.03;100718.69;5055175;28;1143;-55
2022/04/20 02:30:30;;;;;;;;;;;;;;;17.47;44.08;100722.28;5055473;28;839;-57
2022/04/20 02:32:56;;;;;;;;;;;;;;;17.48;44.05;100719.25;5060221;28;1123;-56
2022/04/20 02:35:21;;;;;;;;;;;;;;;17.44;44.23;100720.94;5078308;28;814;-56
2022/04/20 02:37:47;;;;;;;;;;;;;;;17.41;44.15;100724.25;5078084;28;845;-56
2022/04/20 02:40:12;;;;;;;;;;;;;;;17.40;44.12;100717.94;5058313;28;896;-55
2022/04/20 02:42:38;;;;;;;;;;;;;;;17.40;44.19;100714.34;5078125;28;816;-56
2022/04/20 02:45:04;;;;;;;;;;;;;;;17.36;44.24;100705.84;5057858;28;1965;-56
2022/04/20 02:47:29;;;;;;;;;;;;;;;17.45;43.99;100709.66;5076869;28;885;-56
2022/04/20 02:49:55;;;;;;;;;;;;;;;17.48;43.96;100711.00;5077909;28;1118;-54
2022/04/20 02:52:22;;;;;;;;;;;;;;;17.47;43.99;100719.53;5059458;28;1240;-56
2022/04/20 02:54:47;;;;;;;;;;;;;;;17.58;44.00;100721.16;5059359;28;1126;-56
2022/04/20 02:57:14;;;;;;;;;;;;;;;17.58;43.83;100710.97;5059778;28;1185;-57
2022/04/20 02:59:40;;;;;;;;;;;;;;;17.58;43.81;100708.22;5059490;28;1157;-56
2022/04/20 03:02:06;;;;;;;;;;;;;;;17.64;43.69;100721.94;5058690;28;1253;-56
2022/04/20 03:04:32;;;;;;;;;;;;;;;17.62;43.71;100719.47;5059104;28;1975;-57
2022/04/20 03:06:58;;;;;;;;;;;;;;;17.64;43.66;100728.25;5059158;28;1601;-56
2022/04/20 03:09:38;;;;;;;;;;;;;;;17.68;43.39;100729.34;5059658;28;1157;-55
2022/04/20 03:12:05;;;;;;;;;;;;;;;17.65;43.38;100724.41;5059628;28;1103;-56
2022/04/20 03:14:34;;;;;;;;;;;;;;;17.72;43.57;100724.09;5059379;28;1217;-56
2022/04/20 03:17:01;;;;;;;;;;;;;;;17.82;43.36;100734.25;5050564;28;1318;-57
2022/04/20 03:19:26;;;;;;;;;;;;;;;17.85;43.15;100741.91;5076698;28;766;-54
2022/04/20 03:21:52;;;;;;;;;;;;;;;17.82;43.36;100735.06;5058933;28;1613;-54
2022/04/20 03:24:19;;;;;;;;;;;;;;;17.85;43.31;100742.75;5058996;28;1948;-56
2022/04/20 03:27:04;;;;;;;;;;;;;;;17.81;43.13;100738.09;5048401;28;1267;-56
2022/04/20 03:29:41;;;;;;;;;;;;;;;17.81;43.31;100740.84;5058715;28;1150;-55
2022/04/20 03:32:10;;;;;;;;;;;;;;;17.87;43.00;100740.53;5057708;28;1099;-56
2022/04/20 03:34:37;;;;;;;;;;;;;;;17.91;43.05;100747.16;5058770;28;1244;-57
2022/04/20 03:37:04;;;;;;;;;;;;;;;17.97;42.82;100756.19;5076698;28;922;-58
2022/04/20 03:39:30;;;;;;;;;;;;;;;17.95;42.83;100748.22;5077260;28;821;-57
2022/04/20 03:41:55;;;;;;;;;;;;;;;17.96;42.98;100751.78;5058488;28;822;-56
2022/04/20 03:44:20;;;;;;;;;;;;;;;17.95;42.77;100755.66;5076395;28;1975;-55
2022/04/20 03:46:46;;;;;;;;;;;;;;;17.94;42.99;100760.31;5049837;28;1184;-57
2022/04/20 03:49:12;;;;;;;;;;;;;;;17.97;42.87;100747.13;5071623;28;1477;-55
2022/04/20 03:51:37;;;;;;;;;;;;;;;17.99;42.76;100753.97;5076899;28;986;-55
2022/04/20 03:54:03;;;;;;;;;;;;;;;18.05;42.56;100752.84;5058922;28;1157;-56
2022/04/20 03:57:03;;;;;;;;;;;;;;;18.00;42.53;100758.38;5046674;28;1298;-52
2022/04/20 03:59:18;;;;;;;;;;;;;;;17.96;42.55;100762.78;5072865;28;1247;-55
2022/04/20 04:01:45;;;;;;;;;;;;;;;17.92;42.67;100768.06;5052343;28;1305;-52
2022/04/20 04:04:11;;;;;;;;;;;;;;;17.95;42.79;100772.19;5058448;28;1937;-51
2022/04/20 04:06:38;;;;;;;;;;;;;;;17.95;42.66;100770.25;5058687;28;1344;-53
2022/04/20 04:09:03;;;;;;;;;;;;;;;17.86;42.95;100768.31;5067510;28;827;-53
2022/04/20 04:11:29;;;;;;;;;;;;;;;17.83;42.98;100757.91;5058803;28;1332;-54
2022/04/20 04:13:54;;;;;;;;;;;;;;;17.80;43.00;100759.28;5058489;28;1170;-53
2022/04/20 04:16:20;;;;;;;;;;;;;;;17.77;42.94;100760.66;5053869;28;1150;-58
2022/04/20 04:18:46;;;;;;;;;;;;;;;17.81;42.89;100773.84;5058694;28;1105;-56
2022/04/20 04:21:11;;;;;;;;;;;;;;;17.74;43.13;100772.22;5070940;28;821;-57
2022/04/20 04:23:37;;;;;;;;;;;;;;;17.74;43.30;100774.97;5058209;28;1965;-56
2022/04/20 04:26:23;;;;;;;;;;;;;;;17.74;43.07;100774.97;5057819;28;1146;-55
2022/04/20 04:28:50;;;;;;;;;;;;;;;17.78;43.19;100777.97;5057303;28;849;-56
2022/04/20 04:31:15;;;;;;;;;;;;;;;17.79;42.86;100785.13;5055698;28;1148;-56
2022/04/20 04:33:41;;;;;;;;;;;;;;;17.81;42.96;100782.94;5056740;28;1377;-57
2022/04/20 04:36:08;;;;;;;;;;;;;;;17.83;42.75;100788.16;5058017;28;1401;-57
2022/04/20 04:38:40;;;;;;;;;;;;;;;17.81;42.80;100793.09;5058172;28;1366;-56
2022/04/20 04:41:07;;;;;;;;;;;;;;;17.85;42.82;100789.53;5076102;28;828;-57
2022/04/20 04:43:34;;;;;;;;;;;;;;;17.84;42.89;100795.28;5075795;28;1897;-54
2022/04/20 04:49:04;;;;;;;;;;;;;;;17.86;42.95;100791.16;5070102;28;967;-56
2022/04/20 04:51:30;;;;;;;;;;;;;;;17.83;42.78;100802.72;5057917;28;1464;-58
2022/04/20 04:53:55;;;;;;;;;;;;;;;17.79;43.06;100799.72;5057599;28;1397;-58
2022/04/20 04:56:28;;;;;;;;;;;;;;;17.72;43.08;100807.44;5052623;28;1182;-59
2022/04/20 04:58:54;;;;;;;;;;;;;;;17.82;43.13;100808.50;5057401;28;1198;-57
2022/04/20 05:01:20;;;;;;;;;;;;;;;17.78;42.97;100806.31;5046644;28;1214;-57
2022/04/20 05:03:46;;;;;;;;;;;;;;;17.83;43.11;100799.16;5058009;28;1975;-59
2022/04/20 05:06:13;;;;;;;;;;;;;;;17.86;42.81;100806.84;5057223;28;843;-57
2022/04/20 05:09:10;;;;;;;;;;;;;;;17.90;42.93;100813.41;5052227;28;1199;-57
2022/04/20 05:11:39;;;;;;;;;;;;;;;17.88;42.71;100815.63;5057727;28;1310;-57
2022/04/20 05:14:06;;;;;;;;;;;;;;;17.86;43.04;100818.66;5054905;28;1329;-57
2022/04/20 05:16:35;;;;;;;;;;;;;;;17.83;42.92;100810.97;5054406;28;1285;-56
2022/04/20 05:19:03;;;;;;;;;;;;;;;17.79;43.21;100813.47;5057919;28;1185;-58
2022/04/20 05:21:29;;;;;;;;;;;;;;;17.82;42.98;100823.06;5057282;28;1311;-58
2022/04/20 05:23:56;;;;;;;;;;;;;;;17.78;43.08;100817.31;5057895;28;1983;-57
2022/04/20 05:26:22;;;;;;;;;;;;;;;17.83;42.94;100823.91;5051505;28;1373;-58
2022/04/20 05:28:48;;;;;;;;;;;;;;;17.78;42.97;100821.97;5057398;28;1140;-57
2022/04/20 05:31:15;;;;;;;;;;;;;;;17.78;42.92;100816.47;5073322;28;1422;-57
2022/04/20 05:33:41;;;;;;;;;;;;;;;17.75;43.19;100833.53;5054450;28;1336;-59
2022/04/20 05:36:08;;;;;;;;;;;;;;;17.76;42.96;100819.50;5057238;28;1414;-59
2022/04/20 05:41:39;;;;;;;;;;;;;;;17.86;42.83;100828.84;5060678;28;1159;-58
2022/04/20 05:44:10;;;;;;;;;;;;;;;17.83;42.87;100823.91;5061357;28;1914;-58
2022/04/20 05:46:36;;;;;;;;;;;;;;;17.82;43.09;100819.50;5055105;28;1630;-59
2022/04/20 05:49:08;;;;;;;;;;;;;;;17.84;43.09;100833.78;5061209;28;1225;-58
2022/04/20 05:51:33;;;;;;;;;;;;;;;17.84;43.06;100831.03;5055866;28;1114;-59
2022/04/20 05:53:59;;;;;;;;;;;;;;;17.78;42.88;100820.06;5061164;28;1114;-56
2022/04/20 05:56:26;;;;;;;;;;;;;;;17.86;42.75;100828.84;5061270;28;918;-57
2022/04/20 05:58:52;;;;;;;;;;;;;;;17.89;42.79;100829.13;5061194;28;1100;-59
2022/04/20 06:01:19;;;;;;;;;;;;;;;17.78;42.87;100817.31;5081814;28;1595;-60
2022/04/20 06:03:50;;;;;;;;;;;;;;;17.88;42.94;100821.97;5073714;28;1921;-59
2022/04/20 06:06:45;;;;;;;;;;;;;;;17.94;42.97;100829.09;5056833;28;1116;-60
2022/04/20 06:09:18;;;;;;;;;;;;;;;17.91;42.59;100815.09;5061022;28;942;-59
2022/04/20 06:12:13;;;;;;;;;;;;;;;17.89;42.66;100818.13;5060896;28;1120;-60
2022/04/20 06:14:54;;;;;;;;;;;;;;;17.71;43.13;100814.06;5060340;28;1173;-60
2022/04/20 06:17:55;;;;;;;;;;;;;;;17.34;43.43;100817.97;4977247;28;1192;-57
2022/04/20 06:20:23;;;;;;;;;;;;;;;17.15;43.29;100814.16;5039297;28;1559;-66
2022/04/20 06:22:58;;;;;;;;;;;;;;;16.96;42.79;100806.50;5078693;28;840;-65
2022/04/20 06:25:38;;;;;;;;;;;;;;;16.80;42.46;100808.38;5078518;28;1195;-65
2022/04/20 06:28:25;;;;;;;;;;;;;;;16.57;42.10;100805.06;5040376;28;1301;-67
2022/04/20 06:31:15;;;;;;;;;;;;;;;16.70;43.27;100809.19;5048909;28;1125;-63
2022/04/20 06:33:40;;;;;;;;;;;;;;;16.83;44.12;100796.00;5074647;28;1590;-68
2022/04/20 06:36:22;;;;;;;;;;;;;;;17.02;45.02;100802.63;5059632;28;1342;-64
2022/04/20 06:39:01;;;;;;;;;;;;;;;17.26;45.04;100802.91;5047457;28;1387;-64
2022/04/20 06:41:44;;;;;;;;;;;;;;;17.94;43.47;100803.53;5055002;28;1267;-64
2022/04/20 06:44:28;;;;;;;;;;;;;;;18.24;42.33;100801.72;5077963;28;1894;-65
2022/04/20 06:47:14;;;;;;;;;;;;;;;18.46;41.93;100793.06;5072342;28;1188;-61
2022/04/20 06:49:56;;;;;;;;;;;;;;;18.67;41.56;100804.75;5060340;28;1210;-70
2022/04/20 06:58:32;;;;;;;;;;;;;;;17.42;42.42;100784.44;5077990;28;770;-64
2022/04/20 07:01:01;;;;;;;;;;;;;;;17.09;41.64;100792.19;5059318;28;1129;-67
2022/04/20 07:03:50;;;;;;;;;;;;;;;16.79;40.89;100781.19;5050024;28;1972;-66
2022/04/20 07:06:31;;;;;;;;;;;;;;;16.72;40.85;100785.03;5059875;28;1102;-69
2022/04/20 07:09:12;;;;;;;;;;;;;;;16.56;40.54;100795.19;5077165;28;838;-65
2022/04/20 07:11:51;;;;;;;;;;;;;;;16.36;40.77;100792.41;5047020;28;2013;-66
2022/04/20 07:14:17;;;;;;;;;;;;;;;16.38;41.83;100803.94;5059519;28;1165;-67
2022/04/20 07:16:43;;;;;;;;;;;;;;;16.64;44.08;100793.81;5057952;28;1418;-66
2022/04/20 07:19:19;;;;;;;;;;;;;;;17.36;45.59;100793.81;5059347;28;1404;-67
2022/04/20 07:22:03;;;;;;;;;;;;;;;17.87;43.97;100780.97;5074024;28;691;-67
2022/04/20 07:24:43;;;;;;;;;;;;;;;18.26;43.07;100783.00;5059446;28;1987;-69
2022/04/20 07:27:32;;;;;;;;;;;;;;;18.40;42.58;100784.00;5055054;28;1319;-69
2022/04/20 07:30:24;;;;;;;;;;;;;;;18.02;42.67;100789.19;5068528;28;1224;-66
2022/04/20 07:33:09;;;;;;;;;;;;;;;17.36;43.42;100782.81;5068058;28;1199;-64
2022/04/20 07:35:53;;;;;;;;;;;;;;;16.91;42.32;100771.63;5076809;28;643;-64
2022/04/20 07:38:55;;;;;;;;;;;;;;;16.63;41.56;100772.13;5051564;28;1131;-69
2022/04/20 07:41:43;;;;;;;;;;;;;;;16.39;41.09;100769.91;5039035;28;1437;-67
2022/04/20 07:44:32;;;;;;;;;;;;;;;16.20;41.07;100762.22;5075932;28;1905;-67
2022/04/20 07:47:28;;;;;;;;;;;;;;;16.28;42.47;100752.59;5016939;28;1095;-67
2022/04/20 07:50:18;;;;;;;;;;;;;;;17.09;46.32;100745.47;5056767;28;1350;-70
2022/04/20 07:52:51;;;;;;;;;;;;;;;18.33;43.59;100731.22;5058486;28;1431;-67
2022/04/20 07:55:27;;;;;;;;;;;;;;;18.28;43.47;100736.75;5077092;28;774;-69
2022/04/20 07:57:56;;;;;;;;;;;;;;;17.70;44.37;100731.84;5075577;28;947;-71
2022/04/20 08:00:38;;;;;;;;;;;;;;;17.16;43.96;100725.16;5055987;28;1314;-66
2022/04/20 08:03:22;;;;;;;;;;;;;;;16.83;43.28;100727.34;5075409;28;1963;-69
2022/04/20 08:05:50;;;;;;;;;;;;;;;16.58;42.43;100718.06;5058600;28;1377;-71
2022/04/20 08:08:18;;;;;;;;;;;;;;;16.43;41.92;100727.91;5076787;28;825;-68
2022/04/20 08:10:44;;;;;;;;;;;;;;;16.36;42.08;100727.38;5055508;28;1178;-66
2022/04/20 08:15:55;;;;;;;;;;;;;;;17.37;46.18;100720.41;5057121;28;1142;-66
2022/04/20 08:18:22;;;;;;;;;;;;;;;18.11;44.17;100721.44;5058012;28;1246;-67
2022/04/20 08:21:07;;;;;;;;;;;;;;;18.48;42.83;100702.72;5075750;28;1048;-69
2022/04/20 08:23:33;;;;;;;;;;;;;;;18.14;43.25;100714.53;5072802;28;1969;-67
2022/04/20 08:25:58;;;;;;;;;;;;;;;17.59;43.97;100715.38;5072200;28;1004;-68
2022/04/20 08:28:24;;;;;;;;;;;;;;;17.16;43.74;100706.72;5076311;28;803;-64
2022/04/20 08:30:50;;;;;;;;;;;;;;;16.80;42.75;100706.75;5070663;28;864;-66
2022/04/20 08:33:16;;;;;;;;;;;;;;;16.58;42.21;100704.34;5075988;28;850;-68
2022/04/20 08:35:41;;;;;;;;;;;;;;;16.40;42.11;100694.72;5076368;28;807;-68
2022/04/20 08:38:07;;;;;;;;;;;;;;;16.45;42.60;100702.13;5073038;28;900;-68
2022/04/20 08:40:32;;;;;;;;;;;;;;;16.53;43.22;100694.16;5075835;28;806;-68
2022/04/20 08:43:01;;;;;;;;;;;;;;;16.59;44.38;100689.47;5076135;28;819;-68
2022/04/20 08:45:27;;;;;;;;;;;;;;;16.73;44.97;100696.09;5072098;28;1996;-70
2022/04/20 08:47:52;;;;;;;;;;;;;;;16.77;45.48;100699.91;5076180;28;864;-69
2022/04/20 08:50:18;;;;;;;;;;;;;;;16.83;45.56;100694.41;5051869;28;933;-66
2022/04/20 08:52:49;;;;;;;;;;;;;;;16.89;46.31;100696.91;5076008;28;785;-66
2022/04/20 08:55:15;;;;;;;;;;;;;;;17.36;45.95;100689.34;5075799;28;749;-69
2022/04/20 08:57:42;;;;;;;;;;;;;;;17.80;44.57;100690.53;5075809;28;871;-70
2022/04/20 09:00:09;;;;;;;;;;;;;;;18.08;43.87;100686.25;5073915;28;774;-69
2022/04/20 09:02:35;;;;;;;;;;;;;;;18.24;43.62;100683.38;5073907;28;786;-67
2022/04/20 09:05:03;;;;;;;;;;;;;;;18.21;43.46;100676.50;5075884;28;1988;-69
2022/04/20 09:07:31;;;;;;;;;;;;;;;17.81;43.69;100683.06;5076137;28;922;-69
2022/04/20 09:09:56;;;;;;;;;;;;;;;17.33;43.80;100683.59;5075583;28;882;-69
2022/04/20 09:12:26;;;;;;;;;;;;;;;17.00;43.49;100685.88;5075943;28;817;-69
2022/04/20 09:14:51;;;;;;;;;;;;;;;16.69;42.62;100686.75;5069681;28;1502;-69
2022/04/20 09:17:18;;;;;;;;;;;;;;;16.55;41.89;100685.66;5073311;28;976;-69
2022/04/20 09:19:44;;;;;;;;;;;;;;;16.40;42.56;100689.22;5079748;28;818;-67
2022/04/20 09:22:20;;;;;;;;;;;;;;;16.50;43.53;100689.22;5079338;28;822;-66
2022/04/20 09:25:08;;;;;;;;;;;;;;;16.54;44.40;100689.50;5073280;28;1986;-70
2022/04/20 09:27:34;;;;;;;;;;;;;;;16.68;44.73;100687.84;5070871;28;961;-61
2022/04/20 09:30:00;;;;;;;;;;;;;;;16.77;45.24;100688.94;5076704;28;1491;-59
2022/04/20 09:32:32;;;;;;;;;;;;;;;16.82;45.23;100701.00;5075368;28;1892;-58
2022/04/20 09:34:58;;;;;;;;;;;;;;;16.82;45.27;100699.09;5075773;28;758;-60
2022/04/20 09:37:24;;;;;;;;;;;;;;;16.82;45.33;100695.53;5079424;28;841;-60
2022/04/20 09:39:50;;;;;;;;;;;;;;;16.93;45.99;100698.00;5042904;28;1292;-61
2022/04/20 09:42:16;;;;;;;;;;;;;;;17.19;45.78;100688.84;5075215;28;822;-61
2022/04/20 09:44:53;;;;;;;;;;;;;;;17.72;44.40;100689.16;5079456;28;1905;-63
2022/04/20 09:50:07;;;;;;;;;;;;;;;18.39;42.91;100697.00;5079356;28;746;-60
2022/04/20 09:52:42;;;;;;;;;;;;;;;18.59;42.26;100687.78;5072704;28;1302;-62
2022/04/20 09:55:10;;;;;;;;;;;;;;;18.61;42.04;100691.03;5076386;28;1076;-66
2022/04/20 09:57:37;;;;;;;;;;;;;;;17.86;43.35;100681.13;5055148;28;1215;-60
2022/04/20 10:00:12;;;;;;;;;;;;;;;17.02;43.92;100690.00;5078009;28;879;-63
2022/04/20 10:02:46;;;;;;;;;;;;;;;16.93;42.59;100680.69;5078851;28;1060;-63
2022/04/20 10:05:12;;;;;;;;;;;;;;;16.73;41.92;100693.34;5078133;28;1913;-62
2022/04/20 10:07:37;;;;;;;;;;;;;;;16.52;41.44;100686.19;5079101;28;753;-63
2022/04/20 10:10:04;;;;;;;;;;;;;;;16.41;41.63;100686.22;5059392;28;1199;-64
2022/04/20 10:12:31;;;;;;;;;;;;;;;16.55;43.23;100670.03;5077466;28;1080;-67
2022/04/20 10:17:45;;;;;;;;;;;;;;;17.24;46.00;100669.63;5040175;28;1318;-64
2022/04/20 10:20:14;;;;;;;;;;;;;;;17.69;45.33;100667.75;5078113;28;833;-67
2022/04/20 10:22:39;;;;;;;;;;;;;;;18.19;43.63;100666.88;5078432;28;909;-66
2022/04/20 10:25:05;;;;;;;;;;;;;;;18.44;43.04;100672.19;5059590;28;1987;-63
2022/04/20 10:27:31;;;;;;;;;;;;;;;18.65;42.59;100674.78;5076853;28;980;-65
2022/04/20 10:29:57;;;;;;;;;;;;;;;17.67;44.33;100667.22;5077815;28;899;-67
2022/04/20 10:32:23;;;;;;;;;;;;;;;17.32;44.21;100665.44;5077704;28;758;-66
2022/04/20 10:34:54;;;;;;;;;;;;;;;17.04;42.96;100665.00;5060456;28;1352;-65
2022/04/20 10:37:28;;;;;;;;;;;;;;;16.84;42.61;100654.88;5044311;28;1249;-67
2022/04/20 10:40:20;;;;;;;;;;;;;;;16.67;41.87;100645.00;5068935;28;1100;-67
2022/04/20 10:43:08;;;;;;;;;;;;;;;16.48;41.94;100655.75;5054524;28;1157;-63
2022/04/20 10:45:34;;;;;;;;;;;;;;;16.60;43.38;100659.00;5068538;28;1988;-67
2022/04/20 10:47:59;;;;;;;;;;;;;;;17.00;46.21;100652.91;5077851;28;1026;-70
2022/04/20 10:50:29;;;;;;;;;;;;;;;17.59;46.21;100654.06;5078210;28;830;-69
2022/04/20 10:53:05;;;;;;;;;;;;;;;18.08;44.55;100655.97;5060438;28;784;-65
2022/04/20 10:55:34;;;;;;;;;;;;;;;18.41;43.87;100649.91;5059835;28;1227;-65
2022/04/20 10:58:03;;;;;;;;;;;;;;;18.51;43.51;100657.25;5074369;28;912;-67
2022/04/20 11:00:35;;;;;;;;;;;;;;;18.01;44.11;100647.22;5072400;28;977;-64
2022/04/20 11:03:02;;;;;;;;;;;;;;;17.42;43.91;100638.75;5077124;28;786;-66
2022/04/20 11:05:27;;;;;;;;;;;;;;;17.10;43.10;100641.91;5077204;28;1983;-68
2022/04/20 11:08:05;;;;;;;;;;;;;;;16.81;42.44;100645.25;5077811;28;1178;-66
2022/04/20 11:10:36;;;;;;;;;;;;;;;16.56;41.39;100633.25;5070401;28;818;-71
2022/04/20 11:19:03;;;;;;;;;;;;;;;17.60;46.45;100625.47;5059255;28;1221;-67
2022/04/20 11:21:55;;;;;;;;;;;;;;;18.35;44.46;100618.88;5059250;28;1441;-71
2022/04/20 11:24:29;;;;;;;;;;;;;;;18.90;42.93;100617.78;5076912;28;1894;-61
2022/04/20 11:26:55;;;;;;;;;;;;;;;19.22;42.07;100616.31;5066032;28;1008;-63
2022/04/20 11:29:27;;;;;;;;;;;;;;;18.85;42.76;100612.31;5077012;28;949;-63
2022/04/20 11:31:58;;;;;;;;;;;;;;;17.82;44.91;100602.22;5071214;28;838;-67
2022/04/20 11:34:26;;;;;;;;;;;;;;;17.71;45.12;100601.47;5058776;28;1425;-65
2022/04/20 11:36:53;;;;;;;;;;;;;;;17.75;45.25;100608.88;5071905;28;848;-63
2022/04/20 11:39:20;;;;;;;;;;;;;;;17.58;45.38;100597.41;5077023;28;798;-61
2022/04/20 11:41:52;;;;;;;;;;;;;;;17.55;45.17;100600.75;5076606;28;869;-60
2022/04/20 11:44:28;;;;;;;;;;;;;;;17.44;45.45;100603.53;5076687;28;1897;-62
2022/04/20 11:47:01;;;;;;;;;;;;;;;17.47;45.37;100601.34;5057835;28;1181;-64
2022/04/20 11:49:46;;;;;;;;;;;;;;;17.37;45.50;100597.53;5076357;28;876;-66
2022/04/20 11:52:17;;;;;;;;;;;;;;;17.31;45.48;100590.44;5059342;28;1383;-63
2022/04/20 11:54:47;;;;;;;;;;;;;;;17.37;45.64;100593.97;5058738;28;1299;-64
2022/04/20 11:57:25;;;;;;;;;;;;;;;17.36;45.50;100587.66;5051289;28;1461;-62
2022/04/20 11:59:50;;;;;;;;;;;;;;;17.20;45.54;100581.41;5075923;28;1096;-64
2022/04/20 12:02:17;;;;;;;;;;;;;;;17.18;45.49;100585.53;5074788;28;1159;-64
2022/04/20 12:04:42;;;;;;;;;;;;;;;17.12;45.65;100576.50;5076311;28;1976;-62
2022/04/20 12:07:09;;;;;;;;;;;;;;;17.09;45.48;100583.38;5057514;28;1456;-63
2022/04/20 12:09:36;;;;;;;;;;;;;;;17.04;45.63;100572.44;5069660;28;791;-62
2022/04/20 12:14:32;;;;;;;;;;;;;;;17.23;45.08;100582.78;5096681;27;1280;-68
2022/04/20 12:17:01;;;;;;;;;;;;;;;17.12;45.30;100572.94;5100205;28;948;-61
2022/04/20 12:19:34;;;;;;;;;;;;;;;17.09;45.48;100574.31;5104077;28;1137;-68
2022/04/20 12:22:09;;;;;;;;;;;;;;;17.07;45.27;100560.06;5109736;28;1142;-66
2022/04/20 12:24:35;;;;;;;;;;;;;;;16.98;45.67;100568.03;5097298;28;1146;-67
2022/04/20 12:27:00;;;;;;;;;;;;;;;16.95;45.41;100568.63;5097979;28;1047;-68
2022/04/20 12:29:27;;;;;;;;;;;;;;;16.98;45.67;100572.72;5094745;28;1133;-68
2022/04/20 12:31:56;;;;;;;;;;;;;;;17.00;45.44;100573.25;5096268;28;1021;-66
2022/04/20 12:34:23;;;;;;;;;;;;;;;17.03;45.48;100567.22;5094221;28;1996;-69
2022/04/20 12:36:51;;;;;;;;;;;;;;;16.97;45.68;100555.44;5092810;28;1291;-66
2022/04/20 12:39:35;;;;;;;;;;;;;;;16.99;45.95;100558.72;5099329;28;864;-68
2022/04/20 12:42:04;;;;;;;;;;;;;;;17.23;46.45;100547.06;5094078;28;853;-63
2022/04/20 12:44:36;;;;;;;;;;;;;;;17.79;45.43;100557.69;5093978;28;897;-65
2022/04/20 12:47:01;;;;;;;;;;;;;;;18.07;44.99;100544.25;5111134;28;1032;-64
2022/04/20 12:49:27;;;;;;;;;;;;;;;18.28;44.23;100550.38;5113778;28;832;-61
2022/04/20 12:51:52;;;;;;;;;;;;;;;18.22;44.40;100548.81;5103791;28;1103;-61
2022/04/20 12:54:22;;;;;;;;;;;;;;;17.85;44.51;100541.97;5108605;28;1913;-64
2022/04/20 13:02:15;;;;;;;;;;;;;;;16.70;42.34;100534.63;5104487;28;1057;-65
2022/04/20 13:04:47;;;;;;;;;;;;;;;16.62;42.07;100532.47;5106467;28;1049;-62
2022/04/20 13:07:13;;;;;;;;;;;;;;;16.53;42.07;100531.41;5109239;28;853;-63
2022/04/20 13:09:38;;;;;;;;;;;;;;;16.51;42.87;100525.34;5113008;28;721;-65
2022/04/20 13:12:04;;;;;;;;;;;;;;;16.82;45.21;100531.56;5112987;28;1975;-63
2022/04/20 13:14:31;;;;;;;;;;;;;;;17.48;46.69;100526.03;5131121;28;1138;-63
2022/04/20 13:16:56;;;;;;;;;;;;;;;17.83;46.27;100526.84;5122545;27;929;-63
2022/04/20 13:19:22;;;;;;;;;;;;;;;18.20;45.15;100522.69;5113335;28;901;-63
2022/04/20 13:21:47;;;;;;;;;;;;;;;18.42;44.40;100511.16;5113481;28;840;-64
2022/04/20 13:24:13;;;;;;;;;;;;;;;18.34;44.42;100509.88;5109317;28;889;-64
2022/04/20 13:29:23;;;;;;;;;;;;;;;17.35;44.15;100500.81;5114236;28;735;-64
2022/04/20 13:31:48;;;;;;;;;;;;;;;17.05;43.61;100508.13;5104471;28;879;-63
2022/04/20 13:34:14;;;;;;;;;;;;;;;16.83;42.73;100496.69;5103995;28;1921;-67
2022/04/20 13:36:40;;;;;;;;;;;;;;;16.64;42.18;100497.31;5118283;28;1134;-63
2022/04/20 13:39:06;;;;;;;;;;;;;;;16.54;42.40;100498.19;5119169;28;788;-63
2022/04/20 13:41:31;;;;;;;;;;;;;;;16.53;42.95;100506.69;5119100;28;829;-61
2022/04/20 13:43:57;;;;;;;;;;;;;;;16.74;44.03;100497.25;5100084;28;836;-63
2022/04/20 13:46:23;;;;;;;;;;;;;;;16.91;44.45;100502.47;5105496;28;841;-62
2022/04/20 13:48:48;;;;;;;;;;;;;;;16.93;45.34;100505.72;5098988;28;777;-63
2022/04/20 13:51:14;;;;;;;;;;;;;;;16.93;45.73;100502.16;5099689;28;881;-65
2022/04/20 13:53:39;;;;;;;;;;;;;;;16.99;45.99;100509.28;5099288;28;1913;-66